createdAt,value
2018-09-28T00:00:45.688Z,99.99
2018-09-28T00:01:45.599Z,99.99
2018-09-28T00:02:45.525Z,99.99
2018-09-28T00:03:45.437Z,99.99
2018-09-28T00:04:45.350Z,99.99
2018-09-28T00:05:45.273Z,99.99
2018-09-28T00:06:45.198Z,99.99
2018-09-28T00:07:45.114Z,99.99
2018-09-28T00:08:45.042Z,99.99
2018-09-28T00:09:44.949Z,99.99
2018-09-28T00:10:44.873Z,99.99
2018-09-28T00:11:44.791Z,99.99
2018-09-28T00:12:44.699Z,99.99
2018-09-28T00:13:44.626Z,99.99
2018-09-28T00:14:44.537Z,99.99
2018-09-28T00:15:44.465Z,99.99
2018-09-28T00:16:44.376Z,99.99
2018-09-28T00:17:44.300Z,99.99
2018-09-28T00:18:44.215Z,99.99
2018-09-28T00:19:44.138Z,99.99
2018-09-28T00:20:44.050Z,99.99
2018-09-28T00:21:43.975Z,99.99
2018-09-28T00:22:43.889Z,99.99
2018-09-28T00:23:43.814Z,99.99
2018-09-28T00:24:43.739Z,99.99
2018-09-28T00:25:43.639Z,99.99
2018-09-28T00:26:43.564Z,99.99
2018-09-28T00:27:43.476Z,99.99
2018-09-28T00:28:43.401Z,99.99
2018-09-28T00:29:43.314Z,99.99
2018-09-28T00:30:43.241Z,99.99
2018-09-28T00:31:43.151Z,99.99
2018-09-28T00:32:43.077Z,99.99
2018-09-28T00:33:42.990Z,99.99
2018-09-28T00:34:42.917Z,99.99
2018-09-28T00:35:42.835Z,99.99
2018-09-28T00:36:42.752Z,99.99
2018-09-28T00:37:42.665Z,99.99
2018-09-28T00:38:42.592Z,99.99
2018-09-28T00:39:42.503Z,99.99
2018-09-28T00:40:42.427Z,99.99
2018-09-28T00:41:42.341Z,99.99
2018-09-28T00:42:42.253Z,99.99
2018-09-28T00:43:42.181Z,99.99
2018-09-28T00:44:42.099Z,99.99
2018-09-28T00:45:42.018Z,99.99
2018-09-28T00:46:41.930Z,99.99
2018-09-28T00:47:41.853Z,99.99
2018-09-28T00:48:41.767Z,99.99
2018-09-28T00:49:41.691Z,99.99
2018-09-28T00:50:41.605Z,99.99
2018-09-28T00:51:41.542Z,99.99
2018-09-28T00:52:41.443Z,99.99
2018-09-28T00:53:41.356Z,99.99
2018-09-28T00:54:41.279Z,99.99
2018-09-28T00:55:41.192Z,99.99
2018-09-28T00:56:41.118Z,99.99
2018-09-28T00:57:41.029Z,99.99
2018-09-28T00:58:40.954Z,99.99
2018-09-28T00:59:40.868Z,99.99
2018-09-28T01:00:40.793Z,99.99
2018-09-28T01:01:40.705Z,99.99
2018-09-28T01:02:40.633Z,99.99
2018-09-28T01:03:40.543Z,99.99
2018-09-28T01:04:40.456Z,99.99
2018-09-28T01:05:40.396Z,99.99
2018-09-28T01:06:40.294Z,99.99
2018-09-28T01:07:40.225Z,99.99
2018-09-28T01:08:40.131Z,99.99
2018-09-28T01:09:40.056Z,99.99
2018-09-28T01:10:39.970Z,99.99
2018-09-28T01:11:39.894Z,99.99
2018-09-28T01:12:39.806Z,99.99
2018-09-28T01:13:39.731Z,99.99
2018-09-28T01:14:39.644Z,99.99
2018-09-28T01:15:39.558Z,99.99
2018-09-28T01:16:39.483Z,99.99
2018-09-28T01:17:39.396Z,99.99
2018-09-28T01:18:39.320Z,99.99
2018-09-28T01:19:39.232Z,99.99
2018-09-28T01:20:39.157Z,99.99
2018-09-28T01:21:39.071Z,99.99
2018-09-28T01:22:38.996Z,99.99
2018-09-28T01:23:38.907Z,99.99
2018-09-28T01:24:38.832Z,99.99
2018-09-28T01:25:38.745Z,99.99
2018-09-28T01:26:38.658Z,99.99
2018-09-28T01:27:38.582Z,99.99
2018-09-28T01:28:38.496Z,99.99
2018-09-28T01:29:38.421Z,99.99
2018-09-28T01:30:38.334Z,99.99
2018-09-28T01:31:38.258Z,99.99
2018-09-28T01:32:38.172Z,99.99
2018-09-28T01:33:38.084Z,99.99
2018-09-28T01:34:38.011Z,99.99
2018-09-28T01:35:37.924Z,99.99
2018-09-28T01:36:37.846Z,99.99
2018-09-28T01:37:37.792Z,99.99
2018-09-28T01:38:37.684Z,99.99
2018-09-28T01:39:37.597Z,99.99
2018-09-28T01:40:37.523Z,99.99
2018-09-28T01:41:37.437Z,99.99
2018-09-28T01:42:37.348Z,99.99
2018-09-28T01:43:37.274Z,99.99
2018-09-28T01:44:37.185Z,99.99
2018-09-28T01:45:37.110Z,99.99
2018-09-28T01:46:37.023Z,99.99
2018-09-28T01:47:36.948Z,99.99
2018-09-28T01:48:36.861Z,99.99
2018-09-28T01:49:36.789Z,99.99
2018-09-28T01:50:36.698Z,99.99
2018-09-28T01:51:36.612Z,99.99
2018-09-28T01:52:36.535Z,99.99
2018-09-28T01:53:36.448Z,99.99
2018-09-28T01:54:36.385Z,99.99
2018-09-28T01:55:36.291Z,99.99
2018-09-28T01:56:36.211Z,99.99
2018-09-28T01:57:36.124Z,99.99
2018-09-28T01:58:36.037Z,99.99
2018-09-28T01:59:35.961Z,99.99
2018-09-28T02:00:35.874Z,99.99
2018-09-28T02:01:35.802Z,99.99
2018-09-28T02:02:35.713Z,99.99
2018-09-28T02:03:35.636Z,99.99
2018-09-28T02:04:35.551Z,99.99
2018-09-28T02:05:35.463Z,99.99
2018-09-28T02:06:35.386Z,99.99
2018-09-28T02:07:35.301Z,99.99
2018-09-28T02:08:35.224Z,99.99
2018-09-28T02:09:35.137Z,99.99
2018-09-28T02:10:35.062Z,99.99
2018-09-28T02:11:34.975Z,99.99
2018-09-28T02:12:34.964Z,99.99
2018-09-28T02:13:34.826Z,99.99
2018-09-28T02:14:34.726Z,99.99
2018-09-28T02:15:34.653Z,99.99
2018-09-28T02:16:34.566Z,99.99
2018-09-28T02:17:34.487Z,99.99
2018-09-28T02:18:34.401Z,99.99
2018-09-28T02:19:34.326Z,99.99
2018-09-28T02:20:34.238Z,99.99
2018-09-28T02:21:34.174Z,99.99
2018-09-28T02:22:34.077Z,99.99
2018-09-28T02:23:33.988Z,99.99
2018-09-28T02:24:33.926Z,99.99
2018-09-28T02:25:33.828Z,99.99
2018-09-28T02:26:33.752Z,99.99
2018-09-28T02:27:33.665Z,99.99
2018-09-28T02:28:33.589Z,99.99
2018-09-28T02:29:33.506Z,99.99
2018-09-28T02:30:33.427Z,99.99
2018-09-28T02:31:33.353Z,99.99
2018-09-28T02:32:33.254Z,99.99
2018-09-28T02:33:33.178Z,99.99
2018-09-28T02:34:33.089Z,99.99
2018-09-28T02:35:33.027Z,99.99
2018-09-28T02:36:32.944Z,99.99
2018-09-28T02:37:32.840Z,99.99
2018-09-28T02:38:32.765Z,99.99
2018-09-28T02:39:32.678Z,99.99
2018-09-28T02:40:32.604Z,99.99
2018-09-28T02:41:32.515Z,99.99
2018-09-28T02:42:32.443Z,99.99
2018-09-28T02:43:32.356Z,99.99
2018-09-28T02:44:32.280Z,99.99
2018-09-28T02:45:32.191Z,99.99
2018-09-28T02:46:32.106Z,99.99
2018-09-28T02:47:32.029Z,99.99
2018-09-28T02:48:31.941Z,99.99
2018-09-28T02:49:31.873Z,99.99
2018-09-28T02:50:31.780Z,99.99
2018-09-28T02:51:31.705Z,99.99
2018-09-28T02:52:31.617Z,99.99
2018-09-28T02:53:31.531Z,99.99
2018-09-28T02:54:31.456Z,99.99
2018-09-28T02:55:31.367Z,99.99
2018-09-28T02:56:31.292Z,99.99
2018-09-28T02:57:31.207Z,99.99
2018-09-28T02:58:31.119Z,99.99
2018-09-28T02:59:31.043Z,99.99
2018-09-28T03:00:30.956Z,99.99
2018-09-28T03:01:30.880Z,99.99
2018-09-28T03:02:30.793Z,99.99
2018-09-28T03:03:30.718Z,99.99
2018-09-28T03:04:30.631Z,99.99
2018-09-28T03:05:30.556Z,99.99
2018-09-28T03:06:30.468Z,99.99
2018-09-28T03:07:30.382Z,99.99
2018-09-28T03:08:30.307Z,99.99
2018-09-28T03:09:30.219Z,99.99
2018-09-28T03:10:30.143Z,99.99
2018-09-28T03:11:30.057Z,99.99
2018-09-28T03:12:29.983Z,99.99
2018-09-28T03:13:29.894Z,99.99
2018-09-28T03:14:29.807Z,99.99
2018-09-28T03:15:29.734Z,99.99
2018-09-28T03:16:29.644Z,99.99
2018-09-28T03:17:29.570Z,99.99
2018-09-28T03:18:29.488Z,99.99
2018-09-28T03:19:29.408Z,99.99
2018-09-28T03:20:29.320Z,99.99
2018-09-28T03:21:29.245Z,99.99
2018-09-28T03:22:29.160Z,99.99
2018-09-28T03:23:29.071Z,99.99
2018-09-28T03:24:28.996Z,99.99
2018-09-28T03:25:28.910Z,99.99
2018-09-28T03:26:28.836Z,99.99
2018-09-28T03:27:28.759Z,99.99
2018-09-28T03:28:28.671Z,99.99
2018-09-28T03:29:28.587Z,99.99
2018-09-28T03:30:28.497Z,99.99
2018-09-28T03:31:28.425Z,99.99
2018-09-28T03:32:28.334Z,99.99
2018-09-28T03:33:28.260Z,99.99
2018-09-28T03:34:28.181Z,99.99
2018-09-28T03:35:28.098Z,99.99
2018-09-28T03:36:28.010Z,99.99
2018-09-28T03:37:27.923Z,99.99
2018-09-28T03:38:27.847Z,99.99
2018-09-28T03:39:27.760Z,99.99
2018-09-28T03:40:27.690Z,99.99
2018-09-28T03:41:27.598Z,99.99
2018-09-28T03:42:27.526Z,99.99
2018-09-28T03:43:27.435Z,99.99
2018-09-28T03:44:27.361Z,99.99
2018-09-28T03:45:27.273Z,99.99
2018-09-28T03:46:27.189Z,99.99
2018-09-28T03:47:27.112Z,99.99
2018-09-28T03:48:27.023Z,99.99
2018-09-28T03:49:26.948Z,99.99
2018-09-28T03:50:26.862Z,99.99
2018-09-28T03:51:26.790Z,99.99
2018-09-28T03:52:26.699Z,99.99
2018-09-28T03:53:26.624Z,99.99
2018-09-28T03:54:26.538Z,99.99
2018-09-28T03:55:26.450Z,99.99
2018-09-28T03:56:26.374Z,99.99
2018-09-28T03:57:26.287Z,99.99
2018-09-28T03:58:26.213Z,99.99
2018-09-28T03:59:26.124Z,99.99
2018-09-28T04:00:26.049Z,99.99
2018-09-28T04:01:25.962Z,99.99
2018-09-28T04:02:25.877Z,99.99
2018-09-28T04:03:25.800Z,99.99
2018-09-28T04:04:25.718Z,99.99
2018-09-28T04:05:25.640Z,99.99
2018-09-28T04:06:25.551Z,99.99
2018-09-28T04:07:25.476Z,99.99
2018-09-28T04:08:25.388Z,99.99
2018-09-28T04:09:25.314Z,99.99
2018-09-28T04:10:25.225Z,99.99
2018-09-28T04:11:25.139Z,99.99
2018-09-28T04:12:25.065Z,99.99
2018-09-28T04:13:24.976Z,99.99
2018-09-28T04:14:24.902Z,99.99
2018-09-28T04:15:24.814Z,99.99
2018-09-28T04:16:24.740Z,99.99
2018-09-28T04:17:24.655Z,99.99
2018-09-28T04:18:24.577Z,99.99
2018-09-28T04:19:24.489Z,99.99
2018-09-28T04:20:24.402Z,99.99
2018-09-28T04:21:24.327Z,99.99
2018-09-28T04:22:24.240Z,99.99
2018-09-28T04:23:24.165Z,99.99
2018-09-28T04:24:24.077Z,99.99
2018-09-28T04:25:24.002Z,99.99
2018-09-28T04:26:23.915Z,99.99
2018-09-28T04:27:23.828Z,99.99
2018-09-28T04:28:23.752Z,99.99
2018-09-28T04:29:23.666Z,99.99
2018-09-28T04:30:23.591Z,99.99
2018-09-28T04:31:23.503Z,99.99
2018-09-28T04:32:23.441Z,99.99
2018-09-28T04:33:23.342Z,99.99
2018-09-28T04:34:23.254Z,99.99
2018-09-28T04:35:23.179Z,99.99
2018-09-28T04:36:23.092Z,99.99
2018-09-28T04:37:23.017Z,99.99
2018-09-28T04:38:22.929Z,99.99
2018-09-28T04:39:22.854Z,99.99
2018-09-28T04:40:22.768Z,99.99
2018-09-28T04:41:22.680Z,99.99
2018-09-28T04:42:22.604Z,99.99
2018-09-28T04:43:22.518Z,99.99
2018-09-28T04:44:22.442Z,99.99
2018-09-28T04:45:22.424Z,99.99
2018-09-28T04:46:22.280Z,99.99
2018-09-28T04:47:22.193Z,99.99
2018-09-28T04:48:22.118Z,99.99
2018-09-28T04:49:22.030Z,99.99
2018-09-28T04:50:21.944Z,99.99
2018-09-28T04:51:21.868Z,99.99
2018-09-28T04:52:21.782Z,99.99
2018-09-28T04:53:21.705Z,99.99
2018-09-28T04:54:21.618Z,99.99
2018-09-28T04:55:21.547Z,99.99
2018-09-28T04:56:21.468Z,99.99
2018-09-28T04:57:21.368Z,99.99
2018-09-28T04:58:21.293Z,99.99
2018-09-28T04:59:21.207Z,99.99
2018-09-28T05:00:21.131Z,99.99
2018-09-28T05:01:21.044Z,99.99
2018-09-28T05:02:20.969Z,99.99
2018-09-28T05:03:20.882Z,99.99
2018-09-28T05:04:20.807Z,99.99
2018-09-28T05:05:20.722Z,99.99
2018-09-28T05:06:20.633Z,99.99
2018-09-28T05:07:20.557Z,99.99
2018-09-28T05:08:20.470Z,99.99
2018-09-28T05:09:20.395Z,99.99
2018-09-28T05:10:20.320Z,99.99
2018-09-28T05:11:20.232Z,99.99
2018-09-28T05:12:20.148Z,99.99
2018-09-28T05:13:20.063Z,99.99
2018-09-28T05:14:19.983Z,99.99
2018-09-28T05:15:19.897Z,99.99
2018-09-28T05:16:19.826Z,99.99
2018-09-28T05:17:19.734Z,99.99
2018-09-28T05:18:19.658Z,99.99
2018-09-28T05:19:19.604Z,99.99
2018-09-28T05:20:19.506Z,99.99
2018-09-28T05:21:19.408Z,99.99
2018-09-28T05:22:19.322Z,99.99
2018-09-28T05:23:19.247Z,99.99
2018-09-28T05:24:19.159Z,99.99
2018-09-28T05:25:19.143Z,99.99
2018-09-28T05:26:18.998Z,99.99
2018-09-28T05:27:18.923Z,99.99
2018-09-28T05:28:18.858Z,99.99
2018-09-28T05:29:18.762Z,99.99
2018-09-28T05:30:18.674Z,99.99
2018-09-28T05:31:18.739Z,99.99
2018-09-28T05:32:18.645Z,99.99
2018-09-28T05:33:18.423Z,99.99
2018-09-28T05:34:18.348Z,99.99
2018-09-28T05:35:18.259Z,99.99
2018-09-28T05:36:18.187Z,99.99
2018-09-28T05:37:18.141Z,99.99
2018-09-28T05:38:18.024Z,99.99
2018-09-28T05:39:17.961Z,99.99
2018-09-28T05:40:17.860Z,99.99
2018-09-28T05:41:17.774Z,99.99
2018-09-28T05:42:17.703Z,99.99
2018-09-28T05:43:17.611Z,99.99
2018-09-28T05:44:17.536Z,99.99
2018-09-28T05:45:17.452Z,99.43
2018-09-28T05:46:17.367Z,99.04
2018-09-28T05:47:17.286Z,99.52
2018-09-28T05:48:17.199Z,99.14
2018-09-28T05:49:17.127Z,99.14
2018-09-28T05:50:17.042Z,98.33
2018-09-28T05:51:16.985Z,99.28
2018-09-28T05:52:16.876Z,98.47
2018-09-28T05:53:16.800Z,98.57
2018-09-28T05:54:16.711Z,98.66
2018-09-28T05:55:16.638Z,98.28
2018-09-28T05:56:16.551Z,98.42
2018-09-28T05:57:16.463Z,98.33
2018-09-28T05:58:16.388Z,98.28
2018-09-28T05:59:16.304Z,98.57
2018-09-28T06:00:16.226Z,98.37
2018-09-28T06:01:16.139Z,99.23
2018-09-28T06:02:16.063Z,99.14
2018-09-28T06:03:15.977Z,99.19
2018-09-28T06:04:15.901Z,99.19
2018-09-28T06:05:15.827Z,99.43
2018-09-28T06:06:15.738Z,99.19
2018-09-28T06:07:15.652Z,99.09
2018-09-28T06:08:15.576Z,98.42
2018-09-28T06:09:15.488Z,99.19
2018-09-28T06:10:15.427Z,99.19
2018-09-28T06:11:15.327Z,99.19
2018-09-28T06:12:15.240Z,98.61
2018-09-28T06:13:15.163Z,99.28
2018-09-28T06:14:15.088Z,98.99
2018-09-28T06:15:15.003Z,99.19
2018-09-28T06:16:14.914Z,99.38
2018-09-28T06:17:14.844Z,99.38
2018-09-28T06:18:14.752Z,99.28
2018-09-28T06:19:14.678Z,99.28
2018-09-28T06:20:14.590Z,98.80
2018-09-28T06:21:14.515Z,98.99
2018-09-28T06:22:14.428Z,99.38
2018-09-28T06:23:14.352Z,99.19
2018-09-28T06:24:14.319Z,99.09
2018-09-28T06:25:14.190Z,99.99
2018-09-28T06:26:14.103Z,99.95
2018-09-28T06:27:14.029Z,99.66
2018-09-28T06:28:13.954Z,99.38
2018-09-28T06:29:13.853Z,99.28
2018-09-28T06:30:13.783Z,98.99
2018-09-28T06:31:13.690Z,99.48
2018-09-28T06:32:13.616Z,99.38
2018-09-28T06:33:13.530Z,99.76
2018-09-28T06:34:13.455Z,99.38
2018-09-28T06:35:13.381Z,99.48
2018-09-28T06:36:13.354Z,98.33
2018-09-28T06:37:13.206Z,99.04
2018-09-28T06:38:13.187Z,99.24
2018-09-28T06:39:13.041Z,99.14
2018-09-28T06:40:12.968Z,99.52
2018-09-28T06:41:12.880Z,98.57
2018-09-28T06:42:12.819Z,98.57
2018-09-28T06:43:12.720Z,99.43
2018-09-28T06:44:12.642Z,98.75
2018-09-28T06:45:12.556Z,98.57
2018-09-28T06:46:12.483Z,98.66
2018-09-28T06:47:12.394Z,99.14
2018-09-28T06:48:12.340Z,98.75
2018-09-28T06:49:12.231Z,98.85
2018-09-28T06:50:12.158Z,98.57
2018-09-28T06:51:12.078Z,98.28
2018-09-28T06:52:11.993Z,98.18
2018-09-28T06:53:11.905Z,98.04
2018-09-28T06:54:11.882Z,97.61
2018-09-28T06:55:11.747Z,98.38
2018-09-28T06:56:11.682Z,97.99
2018-09-28T06:57:11.583Z,97.42
2018-09-28T06:58:11.531Z,97.33
2018-09-28T06:59:11.419Z,97.23
2018-09-28T07:00:11.357Z,96.47
2018-09-28T07:01:11.257Z,96.27
2018-09-28T07:02:11.170Z,96.18
2018-09-28T07:03:11.095Z,95.12
2018-09-28T07:04:11.021Z,95.12
2018-09-28T07:05:10.933Z,94.93
2018-09-28T07:06:10.855Z,94.93
2018-09-28T07:07:10.783Z,94.36
2018-09-28T07:08:10.695Z,93.60
2018-09-28T07:09:10.611Z,93.45
2018-09-28T07:10:10.521Z,92.49
2018-09-28T07:11:10.445Z,92.30
2018-09-28T07:12:10.398Z,90.87
2018-09-28T07:13:10.284Z,89.43
2018-09-28T07:14:10.197Z,88.71
2018-09-28T07:15:10.121Z,87.18
2018-09-28T07:16:10.060Z,86.41
2018-09-28T07:17:09.958Z,86.17
2018-09-28T07:18:09.884Z,85.45
2018-09-28T07:19:09.796Z,83.05
2018-09-28T07:20:09.729Z,82.08
2018-09-28T07:21:09.634Z,80.55
2018-09-28T07:22:09.559Z,79.34
2018-09-28T07:23:09.471Z,77.26
2018-09-28T07:24:09.467Z,76.59
2018-09-28T07:25:09.355Z,76.15
2018-09-28T07:26:09.235Z,75.15
2018-09-28T07:27:09.148Z,75.12
2018-09-28T07:28:09.072Z,74.83
2018-09-28T07:29:09.009Z,74.77
2018-09-28T07:30:08.983Z,73.97
2018-09-28T07:31:08.836Z,73.97
2018-09-28T07:32:08.760Z,72.95
2018-09-28T07:33:08.672Z,72.28
2018-09-28T07:34:08.599Z,71.51
2018-09-28T07:35:08.523Z,70.70
2018-09-28T07:36:08.622Z,71.09
2018-09-28T07:37:08.471Z,70.20
2018-09-28T07:38:08.289Z,69.05
2018-09-28T07:39:08.210Z,69.11
2018-09-28T07:40:08.124Z,69.46
2018-09-28T07:41:08.048Z,70.42
2018-09-28T07:42:08.008Z,71.57
2018-09-28T07:43:07.887Z,70.64
2018-09-28T07:44:07.811Z,69.08
2018-09-28T07:45:07.724Z,68.41
2018-09-28T07:46:07.663Z,68.12
2018-09-28T07:47:07.574Z,68.89
2018-09-28T07:48:07.512Z,67.77
2018-09-28T07:49:07.438Z,67.77
2018-09-28T07:50:07.339Z,67.74
2018-09-28T07:51:07.263Z,67.58
2018-09-28T07:52:07.189Z,66.71
2018-09-28T07:53:07.100Z,66.42
2018-09-28T07:54:07.024Z,65.75
2018-09-28T07:55:06.952Z,64.12
2018-09-28T07:56:06.875Z,64.60
2018-09-28T07:57:06.789Z,64.37
2018-09-28T07:58:06.715Z,65.49
2018-09-28T07:59:06.639Z,65.17
2018-09-28T08:00:06.564Z,62.04
2018-09-28T08:01:06.489Z,61.11
2018-09-28T08:02:06.401Z,60.24
2018-09-28T08:03:06.325Z,59.12
2018-09-28T08:04:06.253Z,57.10
2018-09-28T08:05:06.190Z,56.62
2018-09-28T08:06:06.102Z,55.01
2018-09-28T08:07:06.026Z,54.89
2018-09-28T08:08:05.953Z,56.16
2018-09-28T08:09:05.871Z,55.66
2018-09-28T08:10:05.794Z,55.88
2018-09-28T08:11:05.716Z,55.18
2018-09-28T08:12:05.640Z,55.11
2018-09-28T08:13:05.565Z,55.76
2018-09-28T08:14:05.491Z,56.43
2018-09-28T08:15:05.416Z,57.07
2018-09-28T08:16:05.340Z,57.75
2018-09-28T08:17:05.255Z,59.38
2018-09-28T08:18:05.191Z,60.17
2018-09-28T08:19:05.106Z,58.47
2018-09-28T08:20:05.029Z,59.05
2018-09-28T08:21:04.955Z,59.15
2018-09-28T08:22:04.878Z,58.50
2018-09-28T08:23:04.817Z,58.05
2018-09-28T08:24:04.732Z,57.40
2018-09-28T08:25:04.654Z,57.95
2018-09-28T08:26:04.583Z,59.40
2018-09-28T08:27:04.504Z,59.78
2018-09-28T08:28:04.432Z,59.40
2018-09-28T08:29:04.357Z,60.72
2018-09-28T08:30:04.288Z,61.00
2018-09-28T08:31:04.194Z,61.19
2018-09-28T08:32:04.118Z,62.48
2018-09-28T08:33:04.055Z,62.51
2018-09-28T08:34:03.968Z,60.59
2018-09-28T08:35:03.893Z,60.85
2018-09-28T08:36:03.818Z,62.03
2018-09-28T08:37:03.757Z,61.07
2018-09-28T08:38:03.668Z,60.53
2018-09-28T08:39:03.594Z,60.97
2018-09-28T08:40:03.523Z,61.84
2018-09-28T08:41:03.431Z,60.36
2018-09-28T08:42:03.355Z,58.56
2018-09-28T08:43:03.280Z,57.50
2018-09-28T08:44:03.205Z,56.92
2018-09-28T08:45:03.145Z,57.12
2018-09-28T08:46:03.056Z,57.54
2018-09-28T08:47:02.981Z,58.15
2018-09-28T08:48:02.908Z,57.86
2018-09-28T08:49:02.883Z,57.28
2018-09-28T08:50:02.756Z,57.28
2018-09-28T08:51:02.681Z,56.63
2018-09-28T08:52:02.607Z,55.79
2018-09-28T08:53:02.531Z,56.73
2018-09-28T08:54:02.457Z,57.73
2018-09-28T08:55:02.383Z,58.02
2018-09-28T08:56:02.295Z,58.76
2018-09-28T08:57:02.220Z,58.76
2018-09-28T08:58:02.145Z,58.70
2018-09-28T08:59:02.070Z,57.92
2018-09-28T09:00:01.996Z,58.12
2018-09-28T09:01:01.933Z,59.05
2018-09-28T09:02:01.872Z,60.43
2018-09-28T09:03:01.771Z,62.26
2018-09-28T09:04:01.695Z,61.40
2018-09-28T09:05:01.624Z,61.81
2018-09-28T09:06:01.549Z,60.97
2018-09-28T09:07:01.471Z,60.97
2018-09-28T09:08:01.384Z,60.08
2018-09-28T09:09:01.308Z,60.75
2018-09-28T09:10:01.233Z,60.43
2018-09-28T09:11:01.159Z,62.07
2018-09-28T09:12:01.084Z,60.75
2018-09-28T09:13:01.022Z,60.85
2018-09-28T09:14:00.933Z,60.05
2018-09-28T09:15:00.859Z,61.05
2018-09-28T09:16:00.785Z,62.10
2018-09-28T09:17:00.698Z,62.29
2018-09-28T09:18:00.696Z,62.29
2018-09-28T09:19:00.555Z,61.08
2018-09-28T09:20:00.472Z,60.38
2018-09-28T09:21:00.401Z,60.72
2018-09-28T09:22:00.322Z,60.31
2018-09-28T09:23:00.234Z,61.08
2018-09-28T09:24:00.208Z,61.46
2018-09-28T09:25:00.085Z,61.94
2018-09-28T09:26:00.024Z,62.96
2018-09-28T09:26:59.935Z,63.57
2018-09-28T09:27:59.848Z,63.57
2018-09-28T09:28:59.774Z,62.71
2018-09-28T09:29:59.704Z,63.00
2018-09-28T09:30:59.624Z,62.90
2018-09-28T09:31:59.548Z,62.33
2018-09-28T09:32:59.461Z,60.70
2018-09-28T09:33:59.386Z,60.89
2018-09-28T09:34:59.312Z,60.60
2018-09-28T09:35:59.238Z,61.18
2018-09-28T09:36:59.161Z,61.46
2018-09-28T09:37:59.074Z,61.18
2018-09-28T09:38:59.000Z,60.89
2018-09-28T09:39:58.924Z,61.27
2018-09-28T09:40:58.850Z,61.59
2018-09-28T09:41:58.765Z,61.11
2018-09-28T09:42:58.688Z,61.59
2018-09-28T09:43:58.611Z,60.15
2018-09-28T09:44:58.525Z,60.38
2018-09-28T09:45:58.451Z,59.96
2018-09-28T09:46:58.377Z,59.99
2018-09-28T09:47:58.300Z,60.57
2018-09-28T09:48:58.212Z,60.75
2018-09-28T09:49:58.137Z,59.89
2018-09-28T09:50:58.064Z,59.32
2018-09-28T09:51:57.988Z,57.95
2018-09-28T09:52:57.901Z,57.75
2018-09-28T09:53:57.830Z,58.74
2018-09-28T09:54:57.755Z,58.45
2018-09-28T09:55:57.677Z,57.97
2018-09-28T09:56:57.603Z,57.78
2018-09-28T09:57:57.547Z,59.03
2018-09-28T09:58:57.441Z,58.45
2018-09-28T09:59:57.366Z,57.11
2018-09-28T10:00:57.277Z,56.02
2018-09-28T10:01:57.202Z,56.31
2018-09-28T10:02:57.128Z,56.31
2018-09-28T10:03:57.040Z,55.86
2018-09-28T10:04:56.964Z,55.64
2018-09-28T10:05:56.889Z,55.07
2018-09-28T10:06:56.817Z,55.45
2018-09-28T10:07:56.729Z,55.52
2018-09-28T10:08:56.652Z,55.90
2018-09-28T10:09:56.578Z,56.22
2018-09-28T10:10:56.503Z,57.15
2018-09-28T10:11:56.415Z,57.43
2018-09-28T10:12:56.347Z,57.37
2018-09-28T10:13:56.265Z,56.70
2018-09-28T10:14:56.203Z,56.70
2018-09-28T10:15:56.103Z,58.04
2018-09-28T10:16:56.032Z,57.46
2018-09-28T10:17:55.953Z,57.46
2018-09-28T10:18:55.866Z,57.06
2018-09-28T10:19:55.804Z,57.63
2018-09-28T10:20:55.716Z,58.49
2018-09-28T10:21:55.642Z,58.20
2018-09-28T10:22:55.554Z,58.78
2018-09-28T10:23:55.479Z,58.52
2018-09-28T10:24:55.405Z,58.42
2018-09-28T10:25:55.335Z,58.74
2018-09-28T10:26:55.295Z,57.88
2018-09-28T10:27:55.216Z,55.99
2018-09-28T10:28:55.105Z,56.95
2018-09-28T10:29:55.023Z,57.23
2018-09-28T10:30:54.932Z,56.95
2018-09-28T10:31:54.858Z,57.14
2018-09-28T10:32:54.781Z,57.01
2018-09-28T10:33:54.706Z,57.50
2018-09-28T10:34:54.621Z,59.32
2018-09-28T10:35:54.543Z,59.12
2018-09-28T10:36:54.468Z,58.17
2018-09-28T10:37:54.394Z,56.95
2018-09-28T10:38:54.318Z,55.69
2018-09-28T10:39:54.235Z,55.60
2018-09-28T10:40:54.241Z,56.66
2018-09-28T10:41:54.081Z,56.92
2018-09-28T10:42:54.008Z,56.34
2018-09-28T10:43:53.919Z,56.46
2018-09-28T10:44:53.844Z,57.04
2018-09-28T10:45:53.787Z,57.20
2018-09-28T10:46:53.694Z,55.66
2018-09-28T10:47:53.620Z,54.34
2018-09-28T10:48:53.546Z,53.74
2018-09-28T10:49:53.458Z,53.80
2018-09-28T10:50:53.441Z,54.74
2018-09-28T10:51:53.343Z,55.38
2018-09-28T10:52:53.331Z,55.89
2018-09-28T10:53:53.158Z,55.41
2018-09-28T10:54:53.071Z,54.86
2018-09-28T10:55:52.996Z,55.44
2018-09-28T10:56:52.920Z,55.63
2018-09-28T10:57:52.858Z,55.12
2018-09-28T10:58:52.822Z,55.77
2018-09-28T10:59:52.695Z,54.77
2018-09-28T11:00:52.622Z,53.80
2018-09-28T11:01:52.534Z,54.06
2018-09-28T11:02:52.459Z,55.66
2018-09-28T11:03:52.385Z,53.74
2018-09-28T11:04:52.312Z,53.74
2018-09-28T11:05:52.233Z,53.02
2018-09-28T11:06:52.160Z,51.60
2018-09-28T11:07:52.085Z,50.54
2018-09-28T11:08:52.029Z,49.17
2018-09-28T11:09:51.928Z,47.82
2018-09-28T11:10:51.847Z,49.17
2018-09-28T11:11:51.771Z,50.49
2018-09-28T11:12:51.696Z,51.02
2018-09-28T11:13:51.622Z,51.72
2018-09-28T11:14:51.546Z,50.68
2018-09-28T11:15:51.485Z,49.24
2018-09-28T11:16:51.385Z,48.95
2018-09-28T11:17:51.310Z,49.12
2018-09-28T11:18:51.271Z,49.12
2018-09-28T11:19:51.172Z,49.02
2018-09-28T11:20:51.087Z,48.30
2018-09-28T11:21:51.011Z,46.71
2018-09-28T11:22:50.936Z,46.31
2018-09-28T11:23:50.860Z,47.53
2018-09-28T11:24:50.789Z,46.71
2018-09-28T11:25:50.711Z,46.25
2018-09-28T11:26:50.636Z,46.18
2018-09-28T11:27:50.591Z,45.10
2018-09-28T11:28:50.474Z,46.04
2018-09-28T11:29:50.400Z,45.39
2018-09-28T11:30:50.337Z,44.54
2018-09-28T11:31:50.265Z,44.21
2018-09-28T11:32:50.175Z,44.13
2018-09-28T11:33:50.200Z,44.04
2018-09-28T11:34:50.037Z,45.51
2018-09-28T11:35:49.962Z,46.47
2018-09-28T11:36:49.893Z,46.40
2018-09-28T11:37:49.821Z,45.84
2018-09-28T11:38:49.738Z,46.19
2018-09-28T11:39:49.723Z,46.47
2018-09-28T11:40:49.588Z,47.05
2018-09-28T11:41:49.518Z,47.56
2018-09-28T11:42:49.439Z,45.99
2018-09-28T11:43:49.363Z,45.44
2018-09-28T11:44:49.291Z,45.80
2018-09-28T11:45:49.271Z,47.30
2018-09-28T11:46:49.138Z,49.10
2018-09-28T11:47:49.064Z,51.06
2018-09-28T11:48:48.989Z,52.28
2018-09-28T11:49:48.914Z,52.53
2018-09-28T11:50:48.838Z,49.53
2018-09-28T11:51:48.972Z,47.94
2018-09-28T11:52:48.689Z,45.94
2018-09-28T11:53:48.614Z,44.62
2018-09-28T11:54:48.540Z,43.41
2018-09-28T11:55:48.464Z,42.39
2018-09-28T11:56:48.377Z,41.05
2018-09-28T11:57:48.370Z,40.47
2018-09-28T11:58:48.239Z,39.36
2018-09-28T11:59:48.165Z,39.22
2018-09-28T12:00:48.092Z,39.51
2018-09-28T12:01:48.016Z,40.36
2018-09-28T12:02:47.940Z,40.20
2018-09-28T12:03:47.941Z,39.57
2018-09-28T12:04:47.790Z,39.26
2018-09-28T12:05:47.716Z,40.11
2018-09-28T12:06:47.699Z,41.78
2018-09-28T12:07:47.568Z,42.15
2018-09-28T12:08:47.491Z,44.04
2018-09-28T12:09:47.499Z,43.98
2018-09-28T12:10:47.422Z,42.70
2018-09-28T12:39:52.329Z,48.33
2018-09-28T12:40:52.195Z,48.54
2018-09-28T12:41:52.119Z,48.45
2018-09-28T12:42:52.115Z,48.16
2018-09-28T12:43:51.970Z,47.51
2018-09-28T12:44:51.958Z,47.56
2018-09-28T12:45:51.820Z,49.22
2018-09-28T12:46:51.745Z,49.48
2018-09-28T12:47:51.670Z,51.37
2018-09-28T12:48:51.687Z,52.24
2018-09-28T12:49:51.521Z,52.02
2018-09-28T12:50:51.446Z,53.11
2018-09-28T12:51:51.359Z,53.01
2018-09-28T12:52:51.286Z,52.08
2018-09-28T12:53:51.209Z,51.50
2018-09-28T12:54:51.176Z,51.50
2018-09-28T12:55:51.057Z,51.50
2018-09-28T12:56:51.055Z,50.92
2018-09-28T12:57:50.908Z,50.37
2018-09-28T12:58:50.848Z,50.46
2018-09-28T12:59:50.758Z,49.82
2018-09-28T13:00:50.786Z,50.10
2018-09-28T13:01:50.596Z,49.31
2018-09-28T13:02:50.539Z,49.31
2018-09-28T13:03:50.450Z,48.45
2018-09-28T13:04:50.375Z,48.83
2018-09-28T13:05:50.301Z,48.08
2018-09-28T13:06:50.366Z,46.14
2018-09-28T13:07:50.147Z,46.69
2018-09-28T13:08:50.149Z,46.58
2018-09-28T13:09:49.985Z,47.39
2018-09-28T13:10:49.913Z,46.33
2018-09-28T13:11:49.848Z,45.47
2018-09-28T13:12:49.832Z,45.10
2018-09-28T13:13:49.686Z,45.39
2018-09-28T13:14:49.647Z,45.20
2018-09-28T13:15:49.548Z,45.10
2018-09-28T13:16:49.462Z,44.72
2018-09-28T13:17:49.379Z,44.53
2018-09-28T13:18:49.320Z,44.17
2018-09-28T13:19:49.224Z,44.28